Calgary International Airport
CYYC : now visible

Airfield :











YOU CAN JOIN US ON...

 
LOGIN :

Register | Disclaimer

   EN    FR    IT 

 









Legend :    VFR   Marginal VFR   IFR   Intensive IFR   Very Intensive IFR
Visi :
Ceiling :
>= 8 km
>= 3000ft
5 to 8 km
1000 to 3000 ft
1500m to 5 km
500 to 1000 ft
800 to 1500m
200 to 500 ft
< 800m
< 200 ft
Symbols :   Thunderstorms  Fog  Heavy snow  Heavy precipitations  Wind > 20 kt






- Airport Elevation : 3557 ft
- IATA code : YYC


CYYC - Calgary International

CURRENT METAR :
  • 070000Z 18016KT 8SM SCT230 05/M02 A2953 RMK CI3 SLP046 DENSITY ALT 3800FT

EXPIRED METARs :
  • 062300Z 19013G18KT 8SM FEW230 04/M02 A2955 RMK CI2 SLP054
  • 062200Z 18012G17KT 8SM FEW030 FEW230 03/M02 A2957 RMK SF1CI1 SF TR SLP062

TAF TAF CYYC
Valid from the 07 at 00:00 until the 08 at 00:00 UTC


062338Z 0700/0724 19012G22KT P6SM FEW230
BECMG 0700/0702 27012KT
FM071000 24006KT P6SM BKN060
BECMG 0710/0712 36012G22KT
FM071400 03008KT P6SM SCT006 BKN060
TEMPO 0714/0717 3SM -SN BR BKN006
FM071700 04012KT P6SM -SN BKN015
TEMPO 0717/0724 3SM -SN OVC008 RMK NXT FCST BY 070300Z



MET'MAP, your aeronautical weather chart ! - Copyright ORBIFLY December 2007 - Disclaimer

ORBIFLY MET'MAP TEAM :

Programming & Development : Alexandra Zaïnal
Concept & original design : Baudouin d'Aumeries
Assistance for programming : Marc-Olivier Méhu
Technical & hardware support : Manuel Goepfert

Contact : metmap@orbifly.com




SOURCES & CREDITS :

   NOAA       Earth
Advisory